createdAt,value
2022-12-25T00:00:18.320Z,13.00
2022-12-25T00:02:50.702Z,15.20
2022-12-25T00:05:19.253Z,15.27
2022-12-25T00:07:47.738Z,14.45
2022-12-25T00:10:16.331Z,13.40
2022-12-25T00:12:44.869Z,13.15
2022-12-25T00:15:13.605Z,14.38
2022-12-25T00:17:42.145Z,12.98
2022-12-25T00:20:12.495Z,12.68
2022-12-25T00:22:40.999Z,12.75
2022-12-25T00:25:10.277Z,13.98
2022-12-25T00:27:39.035Z,15.63
2022-12-25T00:30:08.797Z,14.15
2022-12-25T00:32:37.851Z,13.90
2022-12-25T00:35:07.178Z,12.93
2022-12-25T00:37:37.177Z,11.65
2022-12-25T00:40:06.443Z,11.35
2022-12-25T00:42:34.876Z,10.93
2022-12-25T00:45:04.832Z,11.52
2022-12-25T00:47:34.086Z,10.82
2022-12-25T00:50:02.649Z,11.07
2022-12-25T00:52:31.050Z,10.68
2022-12-25T00:55:01.079Z,10.85
2022-12-25T00:57:29.628Z,11.90
2022-12-25T00:59:58.246Z,10.52
2022-12-25T01:02:26.943Z,9.70
2022-12-25T01:04:57.322Z,9.20
2022-12-25T01:07:27.464Z,9.68
2022-12-25T01:10:13.382Z,10.68
2022-12-25T01:12:44.721Z,9.25
2022-12-25T01:15:14.258Z,11.50
2022-12-25T01:17:44.130Z,9.80
2022-12-25T01:22:42.946Z,10.45
2022-12-25T01:25:12.418Z,10.00
2022-12-25T01:27:42.856Z,9.82
2022-12-25T01:30:12.538Z,12.13
2022-12-25T01:32:41.101Z,9.90
2022-12-25T01:35:10.128Z,9.38
2022-12-25T01:37:38.732Z,9.18
2022-12-25T01:40:09.120Z,10.90
2022-12-25T01:42:37.833Z,8.75
2022-12-25T01:45:36.423Z,9.13
2022-12-25T01:48:09.787Z,8.65
2022-12-25T01:50:40.754Z,7.45
2022-12-25T01:53:09.415Z,6.82
2022-12-25T01:55:39.367Z,8.80
2022-12-25T01:58:08.241Z,7.57
2022-12-25T02:00:38.235Z,7.40
2022-12-25T02:03:07.219Z,6.60
2022-12-25T02:05:36.793Z,5.80
2022-12-25T02:08:10.583Z,6.05
2022-12-25T02:10:39.918Z,6.00
2022-12-25T02:13:09.664Z,6.00
2022-12-25T02:18:17.201Z,5.47
2022-12-25T02:21:08.197Z,5.90
2022-12-25T02:23:50.715Z,6.03
2022-12-25T02:26:57.897Z,5.97
2022-12-25T02:29:36.281Z,7.00
2022-12-25T02:32:11.412Z,7.10
2022-12-25T02:34:47.489Z,6.38
2022-12-25T02:37:20.638Z,6.50
2022-12-25T02:39:57.995Z,6.63
2022-12-25T02:42:57.595Z,6.47
2022-12-25T02:45:52.194Z,6.80
2022-12-25T02:48:40.919Z,7.30
2022-12-25T02:51:30.557Z,6.68
2022-12-25T02:54:19.335Z,6.20
2022-12-25T02:57:07.393Z,6.75
2022-12-25T02:59:55.829Z,6.55
2022-12-25T03:02:45.595Z,5.95
2022-12-25T03:08:07.456Z,6.75
2022-12-25T03:10:52.863Z,6.03
2022-12-25T03:13:25.584Z,6.07
2022-12-25T03:16:11.743Z,5.93
2022-12-25T03:18:41.780Z,7.20
2022-12-25T03:21:27.870Z,5.82
2022-12-25T03:24:18.637Z,6.00
2022-12-25T03:26:56.484Z,6.05
2022-12-25T03:29:43.218Z,5.53
2022-12-25T03:32:20.744Z,6.68
2022-12-25T03:35:19.937Z,6.80
2022-12-25T03:38:14.414Z,5.60
2022-12-25T03:41:19.562Z,6.10
2022-12-25T03:44:12.604Z,4.95
2022-12-25T03:47:05.684Z,5.22
2022-12-25T03:50:01.937Z,5.03
2022-12-25T03:52:52.044Z,4.72
2022-12-25T03:55:38.849Z,5.55
2022-12-25T03:58:34.934Z,5.68
2022-12-25T04:01:20.919Z,6.10
2022-12-25T04:04:06.797Z,5.60
2022-12-25T04:06:52.741Z,5.75
2022-12-25T04:09:40.003Z,5.85
2022-12-25T04:12:26.391Z,6.47
2022-12-25T04:15:12.031Z,6.78
2022-12-25T04:17:58.019Z,6.57
2022-12-25T04:20:43.881Z,6.13
2022-12-25T04:23:29.610Z,5.20
2022-12-25T04:26:18.104Z,5.25
2022-12-25T04:29:03.875Z,5.60
2022-12-25T04:31:49.747Z,6.30
2022-12-25T04:34:35.540Z,7.13
2022-12-25T04:37:03.936Z,6.30
2022-12-25T04:39:32.349Z,6.45
2022-12-25T04:42:02.134Z,6.32
2022-12-25T04:44:30.706Z,6.32
2022-12-25T04:46:59.147Z,5.85
2022-12-25T04:49:27.633Z,6.13
2022-12-25T04:51:56.019Z,6.18
2022-12-25T04:54:24.704Z,6.93
2022-12-25T04:56:53.366Z,6.13
2022-12-25T04:59:23.439Z,7.45
2022-12-25T05:01:51.966Z,7.38
2022-12-25T05:04:20.447Z,7.45
2022-12-25T05:06:48.907Z,6.35
2022-12-25T05:09:17.371Z,6.40
2022-12-25T05:11:45.866Z,7.00
2022-12-25T05:14:14.405Z,7.65
2022-12-25T05:16:44.398Z,7.20
2022-12-25T05:21:41.062Z,7.05
2022-12-25T05:24:09.509Z,8.82
2022-12-25T05:26:38.476Z,9.07
2022-12-25T05:29:07.053Z,7.35
2022-12-25T05:31:35.548Z,7.45
2022-12-25T05:34:05.413Z,6.80
2022-12-25T05:36:33.865Z,5.93
2022-12-25T05:39:02.356Z,6.82
2022-12-25T05:41:34.506Z,7.63
2022-12-25T05:44:03.744Z,7.20
2022-12-25T05:46:32.226Z,6.53
2022-12-25T05:49:00.761Z,7.20
2022-12-25T05:51:30.810Z,6.20
2022-12-25T05:53:59.360Z,6.90
2022-12-25T05:56:27.864Z,6.57
2022-12-25T05:58:56.432Z,7.05
2022-12-25T06:01:27.708Z,6.47
2022-12-25T06:03:57.015Z,6.50
2022-12-25T06:06:25.752Z,6.65
2022-12-25T06:08:56.279Z,6.72
2022-12-25T06:11:24.830Z,6.22
2022-12-25T06:13:54.135Z,6.40
2022-12-25T06:16:22.970Z,7.32
2022-12-25T06:18:52.961Z,8.40
2022-12-25T06:21:21.522Z,7.95
2022-12-25T06:23:50.278Z,7.45
2022-12-25T06:26:21.078Z,7.83
2022-12-25T06:28:49.560Z,8.55
2022-12-25T06:31:19.506Z,7.50
2022-12-25T06:33:47.930Z,8.30
2022-12-25T06:36:20.082Z,10.93
2022-12-25T06:38:49.293Z,11.00
2022-12-25T06:41:20.579Z,11.98
2022-12-25T06:43:50.143Z,17.48
2022-12-25T06:46:19.118Z,13.40
2022-12-25T06:48:49.610Z,11.05
2022-12-25T06:51:19.195Z,13.15
2022-12-25T06:53:48.270Z,13.48
2022-12-25T06:56:19.468Z,15.75
2022-12-25T06:58:50.935Z,21.38
2022-12-25T07:01:22.841Z,23.45
2022-12-25T07:03:54.114Z,21.05
2022-12-25T07:06:22.795Z,17.88
2022-12-25T07:08:51.300Z,18.85
2022-12-25T07:11:20.700Z,18.40
2022-12-25T07:13:51.083Z,17.40
2022-12-25T07:16:20.301Z,16.63
2022-12-25T07:18:48.874Z,16.90
2022-12-25T07:21:19.898Z,16.35
2022-12-25T07:23:50.866Z,16.52
2022-12-25T07:26:19.404Z,23.67
2022-12-25T07:28:47.947Z,23.15
2022-12-25T07:31:19.600Z,28.92
2022-12-25T07:33:48.516Z,28.65
2022-12-25T07:36:17.643Z,29.57
2022-12-25T07:38:49.935Z,34.58
2022-12-25T07:41:18.860Z,34.25
2022-12-25T07:43:51.467Z,27.42
2022-12-25T07:46:22.041Z,32.38
2022-12-25T07:48:50.477Z,32.35
2022-12-25T07:51:19.071Z,25.98
2022-12-25T07:53:47.594Z,21.17
2022-12-25T07:56:18.764Z,20.23
2022-12-25T07:58:48.325Z,24.58
2022-12-25T08:01:20.331Z,29.25
2022-12-25T08:03:55.042Z,29.92
2022-12-25T08:06:26.743Z,27.83
2022-12-25T08:08:55.155Z,38.92
2022-12-25T08:11:23.792Z,50.17
2022-12-25T08:13:52.225Z,43.08
2022-12-25T08:16:20.845Z,47.50
2022-12-25T08:18:49.326Z,39.42
2022-12-25T08:21:19.105Z,42.25
2022-12-25T08:26:20.387Z,93.38
2022-12-25T08:28:50.048Z,75.32
2022-12-25T08:33:48.977Z,65.30
2022-12-25T08:36:19.232Z,49.00
2022-12-25T08:38:47.891Z,54.60
2022-12-25T08:41:17.431Z,49.78
2022-12-25T08:43:46.386Z,40.42
2022-12-25T08:46:14.891Z,38.63
2022-12-25T08:48:44.064Z,57.47
2022-12-25T08:51:15.509Z,93.93
2022-12-25T08:53:47.123Z,91.78
2022-12-25T08:56:16.849Z,57.95
2022-12-25T09:01:13.964Z,83.78
2022-12-25T09:03:43.014Z,103.82
2022-12-25T09:06:12.962Z,85.63
2022-12-25T09:11:21.670Z,74.68
2022-12-25T09:13:50.384Z,73.57
2022-12-25T09:16:21.449Z,72.15
2022-12-25T09:18:50.608Z,68.53
2022-12-25T09:21:19.325Z,78.22
2022-12-25T09:23:47.841Z,78.18
2022-12-25T09:26:19.105Z,67.35
2022-12-25T09:28:51.982Z,72.65
2022-12-25T09:31:21.257Z,106.47
2022-12-25T09:33:50.120Z,107.13
2022-12-25T09:36:21.179Z,89.63
2022-12-25T09:38:49.778Z,67.97
2022-12-25T09:41:28.345Z,54.97
2022-12-25T09:44:00.669Z,57.17
2022-12-25T09:46:37.231Z,63.08
2022-12-25T09:49:12.964Z,52.75
2022-12-25T09:51:44.495Z,46.40
2022-12-25T09:54:19.540Z,35.92
2022-12-25T09:56:49.506Z,57.17
2022-12-25T09:59:24.399Z,36.33
2022-12-25T10:02:05.136Z,29.60
2022-12-25T10:04:54.976Z,23.02
2022-12-25T10:10:03.792Z,25.40
2022-12-25T10:12:43.830Z,20.30
2022-12-25T10:15:26.218Z,17.88
2022-12-25T10:18:08.524Z,16.30
2022-12-25T10:20:46.713Z,15.68
2022-12-25T10:23:20.174Z,13.45
2022-12-25T10:25:49.158Z,13.30
2022-12-25T10:28:27.881Z,12.63
2022-12-25T10:31:00.534Z,11.98
2022-12-25T10:33:29.403Z,10.65
2022-12-25T10:35:58.045Z,12.80
2022-12-25T10:38:26.786Z,11.60
2022-12-25T10:41:19.154Z,9.65
2022-12-25T10:43:51.095Z,8.10
2022-12-25T10:46:21.241Z,7.72
2022-12-25T10:48:53.345Z,6.72
2022-12-25T10:51:30.545Z,6.43
2022-12-25T10:53:59.608Z,6.45
2022-12-25T10:56:28.051Z,6.47
2022-12-25T10:59:07.771Z,6.57
2022-12-25T11:01:36.745Z,6.43
2022-12-25T11:04:05.477Z,6.77
2022-12-25T11:06:34.650Z,7.07
2022-12-25T11:09:04.150Z,5.80
2022-12-25T11:11:32.780Z,6.00
2022-12-25T11:14:03.224Z,6.50
2022-12-25T11:16:37.234Z,5.95
2022-12-25T11:19:25.856Z,6.90
2022-12-25T11:21:56.296Z,5.82
2022-12-25T11:24:28.079Z,6.68
2022-12-25T11:26:59.097Z,6.85
2022-12-25T11:29:37.804Z,6.00
2022-12-25T11:32:16.897Z,7.10
2022-12-25T11:34:47.383Z,6.25
2022-12-25T11:37:21.127Z,6.80
2022-12-25T11:39:49.710Z,6.03
2022-12-25T11:42:24.376Z,6.35
2022-12-25T11:44:58.595Z,7.15
2022-12-25T11:47:34.680Z,6.65
2022-12-25T11:50:08.839Z,7.93
2022-12-25T11:52:40.335Z,6.45
2022-12-25T11:55:19.194Z,6.68
2022-12-25T11:57:54.230Z,5.72
2022-12-25T12:00:23.115Z,6.32
2022-12-25T12:02:59.948Z,6.75
2022-12-25T12:05:35.930Z,6.88
2022-12-25T12:08:06.156Z,5.80
2022-12-25T12:10:47.207Z,6.15
2022-12-25T12:13:28.498Z,6.65
2022-12-25T12:15:57.756Z,6.93
2022-12-25T12:18:34.309Z,7.63
2022-12-25T12:21:06.955Z,6.50
2022-12-25T12:23:48.784Z,7.00
2022-12-25T12:26:21.417Z,7.07
2022-12-25T12:28:52.404Z,7.70
2022-12-25T12:31:21.011Z,7.10
2022-12-25T12:33:55.819Z,6.40
2022-12-25T12:36:35.709Z,6.15
2022-12-25T12:39:06.264Z,6.35
2022-12-25T12:41:46.028Z,6.75
2022-12-25T12:44:17.340Z,6.78
2022-12-25T12:46:53.525Z,7.10
2022-12-25T12:49:26.602Z,7.68
2022-12-25T12:52:05.809Z,8.25
2022-12-25T12:54:35.852Z,7.20
2022-12-25T12:57:06.707Z,7.38
2022-12-25T12:59:40.105Z,8.20
2022-12-25T13:02:34.305Z,8.45
2022-12-25T13:05:06.868Z,8.65
2022-12-25T13:07:49.126Z,7.18
2022-12-25T13:10:28.886Z,7.30
2022-12-25T13:13:00.382Z,8.10
2022-12-25T13:15:31.774Z,9.48
2022-12-25T13:18:04.428Z,7.80
2022-12-25T13:20:42.819Z,8.27
2022-12-25T13:23:16.646Z,8.02
2022-12-25T13:25:53.532Z,8.43
2022-12-25T13:28:29.389Z,8.35
2022-12-25T13:31:07.437Z,8.90
2022-12-25T13:33:36.482Z,8.35
2022-12-25T13:36:12.578Z,9.37
2022-12-25T13:38:46.153Z,10.48
2022-12-25T13:41:37.330Z,10.50
2022-12-25T13:44:15.870Z,10.75
2022-12-25T13:46:44.632Z,9.95
2022-12-25T13:49:16.576Z,10.15
2022-12-25T13:51:46.691Z,9.85
2022-12-25T13:54:16.883Z,10.27
2022-12-25T13:56:49.850Z,9.10
2022-12-25T13:59:20.541Z,10.15
2022-12-25T14:01:51.012Z,9.60
2022-12-25T14:04:22.706Z,9.93
2022-12-25T14:06:53.817Z,9.82
2022-12-25T14:09:22.666Z,11.13
2022-12-25T14:11:53.319Z,15.02
2022-12-25T14:14:24.208Z,11.00
2022-12-25T14:16:55.656Z,10.02
2022-12-25T14:19:29.207Z,10.65
2022-12-25T14:22:03.840Z,10.27
2022-12-25T14:24:35.059Z,9.98
2022-12-25T14:27:05.806Z,11.40
2022-12-25T14:29:38.638Z,9.32
2022-12-25T14:32:08.946Z,10.00
2022-12-25T14:34:37.571Z,10.55
2022-12-25T14:37:15.140Z,10.43
2022-12-25T14:39:47.106Z,9.80
2022-12-25T14:42:21.494Z,9.00
2022-12-25T14:44:59.770Z,10.07
2022-12-25T14:47:28.855Z,10.18
2022-12-25T14:49:58.119Z,16.37
2022-12-25T14:52:31.015Z,12.43
2022-12-25T14:55:02.524Z,11.98
2022-12-25T14:57:33.777Z,14.52
2022-12-25T15:00:06.361Z,13.98
2022-12-25T15:02:41.815Z,11.27
2022-12-25T15:05:26.007Z,12.18
2022-12-25T15:08:07.643Z,10.73
2022-12-25T15:13:26.676Z,11.60
2022-12-25T15:15:59.507Z,9.63
2022-12-25T15:18:33.033Z,10.88
2022-12-25T15:21:01.923Z,11.18
2022-12-25T15:23:31.915Z,10.80
2022-12-25T15:26:00.547Z,9.98
2022-12-25T15:28:29.257Z,8.60
2022-12-25T15:30:57.745Z,9.93
2022-12-25T15:33:26.232Z,8.98
2022-12-25T15:35:55.227Z,9.95
2022-12-25T15:38:24.261Z,9.63
2022-12-25T15:40:54.015Z,10.40
2022-12-25T15:43:40.400Z,10.00
2022-12-25T15:46:10.524Z,9.60
2022-12-25T15:48:39.304Z,9.55
2022-12-25T15:51:07.780Z,9.82
2022-12-25T15:53:36.212Z,9.82
2022-12-25T15:56:06.707Z,10.85
2022-12-25T15:58:35.475Z,10.38
2022-12-25T16:01:03.898Z,11.20
2022-12-25T16:03:32.870Z,9.75
2022-12-25T16:06:01.639Z,10.03
2022-12-25T16:08:30.127Z,10.70
2022-12-25T16:10:58.535Z,11.13
2022-12-25T16:13:28.405Z,10.98
2022-12-25T16:18:26.307Z,10.55
2022-12-25T16:20:56.400Z,11.05
2022-12-25T16:23:25.717Z,11.18
2022-12-25T16:25:54.165Z,11.80
2022-12-25T16:28:22.732Z,11.65
2022-12-25T16:30:52.533Z,11.63
2022-12-25T16:35:51.335Z,11.35
2022-12-25T16:38:20.145Z,12.10
2022-12-25T16:40:55.535Z,11.90
2022-12-25T16:43:24.546Z,11.45
2022-12-25T16:45:54.774Z,11.93
2022-12-25T16:48:23.241Z,12.20
2022-12-25T16:50:52.083Z,13.65
2022-12-25T16:53:20.530Z,13.45
2022-12-25T16:55:49.161Z,12.50
2022-12-25T16:58:17.921Z,13.00
2022-12-25T17:00:49.468Z,13.40
2022-12-25T17:03:19.610Z,11.25
2022-12-25T17:08:16.465Z,11.70
2022-12-25T17:10:45.076Z,12.18
2022-12-25T17:13:14.035Z,11.55
2022-12-25T17:15:48.353Z,11.17
2022-12-25T17:18:22.178Z,11.48
2022-12-25T17:20:52.119Z,11.25
2022-12-25T17:25:49.416Z,9.77
2022-12-25T17:28:18.197Z,10.13
2022-12-25T17:30:46.646Z,10.57
2022-12-25T17:33:15.078Z,9.77
2022-12-25T17:35:45.224Z,9.80
2022-12-25T17:38:13.705Z,8.50
2022-12-25T17:40:42.333Z,8.85
2022-12-25T17:43:14.341Z,9.15
2022-12-25T17:45:47.687Z,8.38
2022-12-25T17:48:16.254Z,8.98
2022-12-25T17:50:46.093Z,8.13
2022-12-25T17:55:43.488Z,8.90
2022-12-25T17:58:12.249Z,8.47
2022-12-25T18:00:41.080Z,8.88
2022-12-25T18:03:11.878Z,8.27
2022-12-25T18:05:41.830Z,8.70
2022-12-25T18:08:11.960Z,8.13
2022-12-25T18:10:42.612Z,7.57
2022-12-25T18:13:11.469Z,8.65
2022-12-25T18:15:41.530Z,7.82
2022-12-25T18:18:10.990Z,8.15
2022-12-25T18:20:42.222Z,8.80
2022-12-25T18:23:12.379Z,8.20
2022-12-25T18:25:42.649Z,7.40
2022-12-25T18:28:12.017Z,6.70
2022-12-25T18:30:41.432Z,7.80
2022-12-25T18:33:10.085Z,7.60
2022-12-25T18:35:40.645Z,7.60
2022-12-25T18:38:11.498Z,7.80
2022-12-25T18:40:43.025Z,7.65
2022-12-25T18:43:12.842Z,7.82
2022-12-25T18:45:41.928Z,8.10
2022-12-25T18:48:11.697Z,7.63
2022-12-25T18:50:41.919Z,8.30
2022-12-25T18:53:11.794Z,7.55
2022-12-25T18:58:09.860Z,8.23
2022-12-25T19:00:38.526Z,8.73
2022-12-25T19:03:07.120Z,7.50
2022-12-25T19:05:36.174Z,8.07
2022-12-25T19:08:04.705Z,7.38
2022-12-25T19:10:34.800Z,8.02
2022-12-25T19:13:03.591Z,7.38
2022-12-25T19:15:32.825Z,7.38
2022-12-25T19:18:01.341Z,8.10
2022-12-25T19:20:30.166Z,7.10
2022-12-25T19:22:58.730Z,7.68
2022-12-25T19:25:27.836Z,7.30
2022-12-25T19:27:57.679Z,7.22
2022-12-25T19:30:26.351Z,7.10
2022-12-25T19:32:54.781Z,7.03
2022-12-25T19:35:23.542Z,7.15
2022-12-25T19:37:52.102Z,8.20
2022-12-25T19:40:20.563Z,7.28
2022-12-25T19:42:49.454Z,8.13
2022-12-25T19:45:19.765Z,7.15
2022-12-25T19:47:48.250Z,7.68
2022-12-25T19:50:16.733Z,8.48
2022-12-25T19:52:45.688Z,8.73
2022-12-25T19:55:14.077Z,7.80
2022-12-25T19:57:42.594Z,6.75
2022-12-25T20:00:11.987Z,7.80
2022-12-25T20:02:42.432Z,8.55
2022-12-25T20:05:11.351Z,7.75
2022-12-25T20:07:39.760Z,8.40
2022-12-25T20:10:09.868Z,7.70
2022-12-25T20:12:38.303Z,7.95
2022-12-25T20:15:07.917Z,8.50
2022-12-25T20:17:36.401Z,8.25
2022-12-25T20:20:07.178Z,8.07
2022-12-25T20:22:36.043Z,7.30
2022-12-25T20:25:08.899Z,7.30
2022-12-25T20:27:37.699Z,8.25
2022-12-25T20:30:07.225Z,7.60
2022-12-25T20:32:35.985Z,8.63
2022-12-25T20:35:07.060Z,8.07
2022-12-25T20:37:35.506Z,8.25
2022-12-25T20:40:04.370Z,7.30
2022-12-25T20:42:33.078Z,8.02
2022-12-25T20:45:02.031Z,7.75
2022-12-25T20:47:30.568Z,7.32
2022-12-25T20:49:59.139Z,7.47
2022-12-25T20:52:29.274Z,7.13
2022-12-25T20:54:57.698Z,7.75
2022-12-25T20:57:26.581Z,8.18
2022-12-25T20:59:55.269Z,7.35
2022-12-25T21:02:33.914Z,7.15
2022-12-25T21:05:04.621Z,7.47
2022-12-25T21:07:34.550Z,7.65
2022-12-25T21:12:31.902Z,7.63
2022-12-25T21:15:00.727Z,7.80
2022-12-25T21:17:29.587Z,6.63
2022-12-25T21:19:58.031Z,7.10
2022-12-25T21:22:26.436Z,6.95
2022-12-25T21:24:56.324Z,7.38
2022-12-25T21:29:53.235Z,7.32
2022-12-25T21:32:39.218Z,6.88
2022-12-25T21:35:08.230Z,7.18
2022-12-25T21:37:37.105Z,7.50
2022-12-25T21:40:14.376Z,7.28
2022-12-25T21:42:44.653Z,7.03
2022-12-25T21:45:13.044Z,7.40
2022-12-25T21:48:02.655Z,6.97
2022-12-25T21:50:47.799Z,7.32
2022-12-25T21:53:16.929Z,7.78
2022-12-25T21:55:57.062Z,7.65
2022-12-25T21:58:25.654Z,8.13
2022-12-25T22:00:54.600Z,6.85
2022-12-25T22:03:24.693Z,7.90
2022-12-25T22:06:13.703Z,7.60
2022-12-25T22:08:44.871Z,7.65
2022-12-25T22:11:28.637Z,7.55
2022-12-25T22:14:11.000Z,7.25
2022-12-25T22:16:57.127Z,7.88
2022-12-25T22:19:45.202Z,7.15
2022-12-25T22:22:13.924Z,7.68
2022-12-25T22:24:42.357Z,7.22
2022-12-25T22:27:12.570Z,7.82
2022-12-25T22:29:41.221Z,8.10
2022-12-25T22:32:10.759Z,7.15
2022-12-25T22:34:39.325Z,7.63
2022-12-25T22:37:09.717Z,7.95
2022-12-25T22:39:38.371Z,8.10
2022-12-25T22:42:07.233Z,8.63
2022-12-25T22:44:37.249Z,7.82
2022-12-25T22:47:05.900Z,7.55
2022-12-25T22:49:35.025Z,8.07
2022-12-25T22:52:04.213Z,7.82
2022-12-25T22:54:32.982Z,8.63
2022-12-25T22:57:01.392Z,7.90
2022-12-25T22:59:30.337Z,8.05
2022-12-25T23:02:00.876Z,9.00
2022-12-25T23:04:29.676Z,8.07
2022-12-25T23:06:58.516Z,8.02
2022-12-25T23:09:28.949Z,8.20
2022-12-25T23:11:58.466Z,8.20
2022-12-25T23:14:39.360Z,8.25
2022-12-25T23:17:31.950Z,8.30
2022-12-25T23:20:20.360Z,8.15
2022-12-25T23:23:06.523Z,8.70
2022-12-25T23:25:53.970Z,8.30
2022-12-25T23:28:36.600Z,8.07
2022-12-25T23:31:05.414Z,9.13
2022-12-25T23:33:36.516Z,8.35
2022-12-25T23:36:05.323Z,8.88
2022-12-25T23:38:33.853Z,9.07
2022-12-25T23:41:02.382Z,9.25
2022-12-25T23:43:31.628Z,8.82
2022-12-25T23:46:00.249Z,9.18
2022-12-25T23:48:29.240Z,9.65
2022-12-25T23:51:03.730Z,9.20
2022-12-25T23:53:32.496Z,9.02
2022-12-25T23:56:02.189Z,9.27
2022-12-25T23:58:30.921Z,9.20
